Time;durP1;ratioP1;P1;durP2;ratioP2;P2;SDS_P1;SDS_P2;PMS_P1;PMS_P2;Temp;Humidity;BMP_temperature;BMP_pressure;BME280_temperature;BME280_humidity;BME280_pressure;Samples;Min_cycle;Max_cycle;Signal;HPM_P1;HPM_P2
2023/04/05 00:01:31;;;;;;;4.90;4.60;;;0.80;56.50;;;;;;6249366;28;20693;-80
2023/04/05 00:04:34;;;;;;;4.90;4.60;;;0.80;56.60;;;;;;6246771;28;20230;-79
2023/04/05 00:07:38;;;;;;;5.13;4.83;;;0.80;56.70;;;;;;6252201;28;20745;-81
2023/04/05 00:10:41;;;;;;;4.83;4.50;;;0.80;56.80;;;;;;6241535;28;20240;-82
2023/04/05 00:13:44;;;;;;;5.23;4.93;;;0.80;56.90;;;;;;6238469;28;20388;-80
2023/04/05 00:16:49;;;;;;;6.20;5.60;;;0.70;56.90;;;;;;6253136;28;20618;-78
2023/04/05 00:19:56;;;;;;;5.43;5.13;;;0.70;56.90;;;;;;6261735;28;20261;-80
2023/04/05 00:22:59;;;;;;;5.30;4.77;;;0.70;57.10;;;;;;6249870;28;20234;-80
2023/04/05 00:26:02;;;;;;;6.00;5.30;;;0.70;57.10;;;;;;6250430;28;20324;-79
2023/04/05 00:29:06;;;;;;;5.67;5.27;;;0.70;57.30;;;;;;6246488;28;20230;-80
2023/04/05 00:32:12;;;;;;;5.33;4.93;;;0.70;57.40;;;;;;6247427;28;20257;-80
2023/04/05 00:35:15;;;;;;;5.10;4.70;;;0.60;57.40;;;;;;6237212;28;20305;-80
2023/04/05 00:38:18;;;;;;;5.10;4.80;;;0.60;57.60;;;;;;6253999;28;20249;-82
2023/04/05 00:41:21;;;;;;;5.10;4.90;;;0.60;57.60;;;;;;6255322;28;20240;-81
2023/04/05 00:44:27;;;;;;;5.20;4.90;;;0.60;57.70;;;;;;6255164;28;20242;-82
2023/04/05 00:47:32;;;;;;;6.03;5.63;;;0.60;57.80;;;;;;6247614;28;20759;-83
2023/04/05 00:50:35;;;;;;;6.27;5.53;;;0.60;57.70;;;;;;6242589;28;20235;-81
2023/04/05 00:53:39;;;;;;;5.23;4.97;;;0.50;57.70;;;;;;6232324;28;20312;-81
2023/04/05 00:56:42;;;;;;;5.03;4.73;;;0.50;57.90;;;;;;6214340;28;20239;-81
2023/04/05 00:59:45;;;;;;;4.87;4.57;;;0.50;57.90;;;;;;6241021;28;20246;-79
2023/04/05 01:02:56;;;;;;;4.63;4.43;;;0.50;58.00;;;;;;6253567;28;20864;-80
2023/04/05 01:06:16;;;;;;;4.93;4.67;;;0.50;58.00;;;;;;6229408;28;20936;-79
2023/04/05 01:09:29;;;;;;;5.43;5.03;;;0.40;58.00;;;;;;6227649;28;20328;-77
2023/04/05 01:12:34;;;;;;;5.23;4.93;;;0.40;57.90;;;;;;6232499;28;20246;-80
2023/04/05 01:15:37;;;;;;;4.90;4.70;;;0.40;57.90;;;;;;6242507;28;20850;-81
2023/04/05 01:18:45;;;;;;;4.40;4.30;;;0.40;57.80;;;;;;6246188;28;20234;-81
2023/04/05 01:22:19;;;;;;;5.10;4.70;;;0.40;58.00;;;;;;6244591;28;20239;-80
2023/04/05 01:26:05;;;;;;;5.70;5.17;;;0.40;58.00;;;;;;6246890;28;20230;-83
2023/04/05 01:29:44;;;;;;;5.63;5.33;;;0.30;57.80;;;;;;6257557;28;20249;-83
2023/04/05 01:32:57;;;;;;;4.60;4.43;;;0.30;57.90;;;;;;6251624;28;20321;-79
2023/04/05 01:36:07;;;;;;;4.97;4.77;;;0.30;58.00;;;;;;6251392;28;20227;-79
2023/04/05 01:39:14;;;;;;;4.97;4.70;;;0.30;58.10;;;;;;6254921;28;20242;-79
2023/04/05 01:42:24;;;;;;;5.20;4.87;;;0.30;58.20;;;;;;6252890;28;20321;-81
2023/04/05 01:45:28;;;;;;;5.37;5.07;;;0.30;58.20;;;;;;6239906;28;20635;-80
2023/04/05 01:48:31;;;;;;;5.30;5.00;;;0.20;58.40;;;;;;6246042;28;20238;-81
2023/04/05 01:51:34;;;;;;;4.80;4.60;;;0.30;58.40;;;;;;6255522;28;20234;-79
2023/04/05 01:54:37;;;;;;;4.93;4.73;;;0.20;58.40;;;;;;6258884;28;20240;-82
2023/04/05 01:57:40;;;;;;;4.83;4.53;;;0.20;58.30;;;;;;6261701;28;20229;-82
2023/04/05 02:00:45;;;;;;;5.30;4.90;;;0.20;58.30;;;;;;6244098;28;20261;-80
2023/04/05 02:03:48;;;;;;;4.83;4.53;;;0.30;58.30;;;;;;6255984;28;20315;-80
2023/04/05 02:06:51;;;;;;;5.20;4.80;;;0.30;58.20;;;;;;6237896;28;20291;-82
2023/04/05 02:09:57;;;;;;;5.20;5.00;;;0.40;58.20;;;;;;6245590;28;20376;-82
2023/04/05 02:13:01;;;;;;;5.00;4.80;;;0.50;58.30;;;;;;6265533;28;20241;-80
2023/04/05 02:16:05;;;;;;;5.00;4.80;;;0.50;58.30;;;;;;6243680;28;20291;-80
2023/04/05 02:19:09;;;;;;;4.87;4.67;;;0.60;58.30;;;;;;6258891;28;20745;-81
2023/04/05 02:22:13;;;;;;;5.27;4.97;;;0.60;58.30;;;;;;6245636;28;20238;-83
2023/04/05 02:25:16;;;;;;;5.20;4.87;;;0.60;58.30;;;;;;6256323;28;20773;-82
2023/04/05 02:28:19;;;;;;;5.10;4.80;;;0.80;58.20;;;;;;6239945;28;20230;-81
2023/04/05 02:31:23;;;;;;;5.30;5.00;;;0.80;58.00;;;;;;6246443;28;20243;-81
2023/04/05 02:34:26;;;;;;;5.00;4.70;;;0.80;57.90;;;;;;6254601;28;20304;-83
2023/04/05 02:37:31;;;;;;;4.67;4.50;;;0.80;57.90;;;;;;6255797;28;20238;-81
2023/04/05 02:40:35;;;;;;;4.73;4.53;;;0.90;58.00;;;;;;6258653;28;20241;-80
2023/04/05 02:43:38;;;;;;;5.03;4.83;;;0.90;58.00;;;;;;6256806;28;20615;-79
2023/04/05 02:46:43;;;;;;;5.43;4.93;;;0.90;58.20;;;;;;6242288;28;20234;-82
2023/04/05 02:49:46;;;;;;;4.97;4.73;;;1.00;58.20;;;;;;6246325;28;20242;-78
2023/04/05 02:52:49;;;;;;;5.60;5.10;;;1.00;58.20;;;;;;6249132;28;20238;-81
2023/04/05 02:55:53;;;;;;;4.80;4.60;;;1.00;58.10;;;;;;6249742;28;20246;-82
2023/04/05 02:58:59;;;;;;;4.90;4.70;;;1.10;58.00;;;;;;6250186;28;20299;-80
2023/04/05 03:02:04;;;;;;;5.10;4.80;;;1.10;58.10;;;;;;6261644;28;20237;-82
2023/04/05 03:05:08;;;;;;;5.10;4.90;;;1.20;58.20;;;;;;6248883;28;20237;-82
2023/04/05 03:08:17;;;;;;;6.00;5.50;;;1.30;58.40;;;;;;6246581;28;20225;-80
2023/04/05 03:11:20;;;;;;;5.63;5.23;;;1.30;58.50;;;;;;6263986;28;20238;-82
2023/04/05 03:14:23;;;;;;;4.53;4.33;;;1.40;58.50;;;;;;6239818;28;20288;-82
2023/04/05 03:17:27;;;;;;;5.60;5.10;;;1.40;58.50;;;;;;6250552;28;20281;-81
2023/04/05 03:20:30;;;;;;;6.23;5.70;;;1.40;58.70;;;;;;6255883;28;20235;-79
2023/04/05 03:23:33;;;;;;;6.70;5.97;;;1.50;58.80;;;;;;6244487;28;20480;-79
2023/04/05 03:26:36;;;;;;;5.73;5.23;;;1.50;59.00;;;;;;6239496;28;20317;-82
2023/04/05 03:29:40;;;;;;;5.40;5.10;;;1.50;59.10;;;;;;6246274;28;20434;-81
2023/04/05 03:32:44;;;;;;;6.30;5.87;;;1.50;59.20;;;;;;6226512;28;20396;-81
2023/04/05 03:35:48;;;;;;;6.53;5.93;;;1.60;59.30;;;;;;6246069;28;20242;-82
2023/04/05 03:38:51;;;;;;;6.33;5.63;;;1.60;59.30;;;;;;6246775;28;20379;-85
2023/04/05 03:41:55;;;;;;;9.10;5.60;;;1.60;59.40;;;;;;6237107;28;20246;-79
2023/04/05 03:44:58;;;;;;;6.23;5.53;;;1.60;59.50;;;;;;6239356;28;20527;-80
2023/04/05 03:48:03;;;;;;;5.53;5.20;;;1.70;59.50;;;;;;6245426;28;20846;-81
2023/04/05 03:51:07;;;;;;;5.27;4.97;;;1.70;59.50;;;;;;6265460;28;20446;-79
2023/04/05 03:54:10;;;;;;;6.03;5.43;;;1.70;59.50;;;;;;6239910;28;20481;-81
2023/04/05 03:57:13;;;;;;;7.63;5.03;;;1.80;59.80;;;;;;6251659;28;20396;-81
2023/04/05 04:00:19;;;;;;;6.20;5.70;;;1.80;59.80;;;;;;6239984;28;20254;-81
2023/04/05 04:03:24;;;;;;;5.93;5.27;;;1.80;60.00;;;;;;6256313;28;20284;-77
2023/04/05 04:06:29;;;;;;;5.40;5.10;;;1.90;60.00;;;;;;6261616;28;20254;-77
2023/04/05 04:09:32;;;;;;;5.80;5.40;;;1.90;60.00;;;;;;6255901;28;20253;-76
2023/04/05 04:12:36;;;;;;;8.40;6.07;;;1.90;60.00;;;;;;6246060;28;20525;-78
2023/04/05 04:15:39;;;;;;;6.20;5.70;;;1.90;60.10;;;;;;6255756;28;20245;-79
2023/04/05 04:18:44;;;;;;;6.37;5.77;;;1.90;60.30;;;;;;6261860;28;20462;-77
2023/04/05 04:21:50;;;;;;;6.33;5.90;;;2.00;60.30;;;;;;6257332;28;20609;-77
2023/04/05 04:24:54;;;;;;;6.73;6.10;;;2.00;60.00;;;;;;6250964;28;20321;-76
2023/04/05 04:27:57;;;;;;;6.20;5.60;;;2.00;59.70;;;;;;6252155;28;20243;-79
2023/04/05 04:31:03;;;;;;;6.43;5.83;;;2.00;59.60;;;;;;6249936;28;20242;-78
2023/04/05 04:34:09;;;;;;;6.07;5.47;;;2.00;59.90;;;;;;6256658;28;20527;-78
2023/04/05 04:37:16;;;;;;;6.90;6.30;;;2.10;59.70;;;;;;6237401;28;20343;-78
2023/04/05 04:40:20;;;;;;;5.50;4.97;;;2.10;59.60;;;;;;6252917;28;20238;-78
2023/04/05 04:43:25;;;;;;;5.70;5.30;;;2.20;59.50;;;;;;6247370;28;20520;-78
2023/04/05 04:46:33;;;;;;;5.83;5.43;;;2.20;59.40;;;;;;6247125;28;20239;-77
2023/04/05 04:49:38;;;;;;;5.77;5.37;;;2.20;59.40;;;;;;6251672;28;20231;-78
2023/04/05 04:52:43;;;;;;;6.13;5.63;;;2.10;59.50;;;;;;6286031;28;20229;-76
2023/04/05 04:55:49;;;;;;;5.53;5.13;;;2.10;59.60;;;;;;6279895;28;20222;-75
2023/04/05 04:58:54;;;;;;;6.53;5.87;;;2.10;59.60;;;;;;6271986;28;20237;-76
2023/04/05 05:01:57;;;;;;;5.93;5.53;;;2.20;59.60;;;;;;6287273;28;20217;-77
2023/04/05 05:05:02;;;;;;;6.50;5.50;;;2.20;59.60;;;;;;6275208;28;20217;-77
2023/04/05 05:08:05;;;;;;;5.43;4.93;;;2.20;59.50;;;;;;6258078;28;20231;-77
2023/04/05 05:11:09;;;;;;;5.90;5.03;;;2.30;58.80;;;;;;6251800;28;20745;-78
2023/04/05 05:14:12;;;;;;;5.30;4.80;;;2.30;58.70;;;;;;6247062;28;20242;-77
2023/04/05 05:17:15;;;;;;;5.53;5.03;;;2.40;58.70;;;;;;6242993;28;20234;-77
2023/04/05 05:20:20;;;;;;;5.73;5.10;;;2.40;58.50;;;;;;6246795;28;20239;-78
2023/04/05 05:23:23;;;;;;;6.73;5.27;;;2.40;58.70;;;;;;6265883;28;20334;-77
2023/04/05 05:26:26;;;;;;;5.73;5.20;;;2.40;58.50;;;;;;6257328;28;20235;-77
2023/04/05 05:29:30;;;;;;;5.33;4.93;;;2.40;58.50;;;;;;6241357;28;20238;-78
2023/04/05 05:32:33;;;;;;;5.67;5.30;;;2.50;58.50;;;;;;6257849;28;20233;-77
2023/04/05 05:35:38;;;;;;;5.30;4.90;;;2.50;58.10;;;;;;6252872;28;20249;-76
2023/04/05 05:38:41;;;;;;;5.47;5.17;;;2.50;58.10;;;;;;6283688;28;20218;-76
2023/04/05 05:41:45;;;;;;;6.17;5.53;;;2.50;58.10;;;;;;6282113;28;20246;-78
2023/04/05 05:44:48;;;;;;;5.50;5.20;;;2.60;58.20;;;;;;6270063;28;20218;-77
2023/04/05 05:47:51;;;;;;;6.10;5.63;;;2.60;57.90;;;;;;6285055;28;20262;-78
2023/04/05 05:50:56;;;;;;;6.17;4.97;;;2.70;57.70;;;;;;6264951;28;20252;-76
2023/04/05 05:53:59;;;;;;;7.90;5.93;;;2.70;57.50;;;;;;6257232;28;20242;-78
2023/04/05 05:57:02;;;;;;;8.10;5.43;;;2.80;57.50;;;;;;6251633;28;20268;-78
2023/04/05 06:00:09;;;;;;;5.40;5.10;;;2.80;57.50;;;;;;6248509;28;20240;-78
2023/04/05 06:03:12;;;;;;;5.80;5.40;;;2.80;57.60;;;;;;6240770;28;20257;-79
2023/04/05 06:06:17;;;;;;;6.77;5.60;;;2.90;57.40;;;;;;6245033;28;20269;-78
2023/04/05 06:09:22;;;;;;;6.30;5.90;;;3.00;57.50;;;;;;6244637;28;20730;-76
2023/04/05 06:12:25;;;;;;;5.97;5.57;;;3.10;57.40;;;;;;6254637;28;20441;-76
2023/04/05 06:15:31;;;;;;;7.03;6.10;;;3.20;57.70;;;;;;6250972;28;20234;-79
2023/04/05 06:18:36;;;;;;;6.90;5.97;;;3.30;56.70;;;;;;6250823;28;20326;-79
2023/04/05 06:21:41;;;;;;;8.23;6.03;;;3.30;56.60;;;;;;6249777;28;20241;-76
2023/04/05 06:24:44;;;;;;;6.40;5.77;;;3.40;56.80;;;;;;6243531;28;20241;-77
2023/04/05 06:27:47;;;;;;;7.43;6.57;;;3.50;56.40;;;;;;6250252;28;20231;-77
2023/04/05 06:30:50;;;;;;;6.80;6.07;;;3.50;56.10;;;;;;6247176;28;20230;-77
2023/04/05 06:33:53;;;;;;;6.00;5.60;;;3.60;56.40;;;;;;6248039;28;20719;-78
2023/04/05 06:36:58;;;;;;;5.53;5.13;;;3.60;56.40;;;;;;6258285;28;20567;-78
2023/04/05 06:40:01;;;;;;;6.43;5.70;;;3.70;56.30;;;;;;6248208;28;20239;-77
2023/04/05 06:43:04;;;;;;;6.67;6.00;;;3.90;55.90;;;;;;6258708;28;20595;-77
2023/04/05 06:46:11;;;;;;;5.87;5.47;;;3.90;56.10;;;;;;6243102;28;20238;-78
2023/04/05 06:49:14;;;;;;;5.83;5.43;;;3.90;56.00;;;;;;6249597;28;20234;-78
2023/04/05 06:52:18;;;;;;;5.57;5.37;;;3.90;56.30;;;;;;6255786;28;20301;-76
2023/04/05 06:55:21;;;;;;;6.50;6.10;;;4.10;56.00;;;;;;6247079;28;20372;-75
2023/04/05 06:58:26;;;;;;;6.60;5.93;;;4.20;56.00;;;;;;6237648;28;20469;-77
2023/04/05 07:01:29;;;;;;;8.37;5.97;;;4.20;56.10;;;;;;6261088;28;20302;-76
2023/04/05 07:04:35;;;;;;;7.00;6.30;;;4.40;56.00;;;;;;6254070;28;20261;-76
2023/04/05 07:07:43;;;;;;;6.63;6.10;;;4.40;56.00;;;;;;6251904;28;20298;-76
2023/04/05 07:10:46;;;;;;;7.70;7.10;;;4.40;55.90;;;;;;6247462;28;20257;-76
2023/04/05 07:13:49;;;;;;;7.83;7.20;;;4.50;56.00;;;;;;6251442;28;20241;-80
2023/04/05 07:16:53;;;;;;;7.70;6.93;;;4.50;56.40;;;;;;6248678;28;20241;-77
2023/04/05 07:19:58;;;;;;;7.57;6.27;;;4.10;56.80;;;;;;6260321;28;20234;-77
2023/04/05 07:23:04;;;;;;;7.63;6.93;;;3.90;57.70;;;;;;6238450;28;20435;-77
2023/04/05 07:26:07;;;;;;;6.87;6.27;;;3.90;58.00;;;;;;6253277;28;20701;-76
2023/04/05 07:29:11;;;;;;;7.30;6.70;;;3.90;58.10;;;;;;6239756;28;20501;-76
2023/04/05 07:32:15;;;;;;;9.03;6.53;;;4.10;57.90;;;;;;6241290;28;20238;-77
2023/04/05 07:35:18;;;;;;;6.83;6.23;;;4.40;57.80;;;;;;6254268;28;20242;-75
2023/04/05 07:38:23;;;;;;;7.37;6.73;;;4.50;57.10;;;;;;6232646;28;20227;-78
2023/04/05 07:41:30;;;;;;;7.27;6.47;;;4.70;57.20;;;;;;6241637;28;20253;-75
2023/04/05 07:44:33;;;;;;;7.17;6.50;;;5.00;56.80;;;;;;6231976;28;20245;-77
2023/04/05 07:47:36;;;;;;;7.33;6.83;;;5.10;56.20;;;;;;6248262;28;20234;-76
2023/04/05 07:50:41;;;;;;;7.63;7.00;;;5.30;55.90;;;;;;6251474;28;20315;-76
2023/04/05 07:53:46;;;;;;;6.57;6.17;;;5.50;55.40;;;;;;6246666;28;20234;-76
2023/04/05 07:56:49;;;;;;;7.57;6.50;;;5.70;55.00;;;;;;6253542;28;20226;-76
2023/04/05 07:59:54;;;;;;;6.43;6.03;;;5.70;55.10;;;;;;6249229;28;20245;-76
2023/04/05 08:02:57;;;;;;;6.87;6.17;;;5.60;54.50;;;;;;6254758;28;20895;-78
2023/04/05 08:06:10;;;;;;;7.80;7.13;;;5.70;54.70;;;;;;6259468;28;20238;-78
2023/04/05 08:09:16;;;;;;;6.57;5.97;;;5.70;54.80;;;;;;6255110;28;20617;-75
2023/04/05 08:12:19;;;;;;;7.33;6.57;;;5.90;54.60;;;;;;6250120;28;20237;-76
2023/04/05 08:15:22;;;;;;;6.57;6.17;;;6.00;54.50;;;;;;6258756;28;20256;-76
2023/04/05 08:18:25;;;;;;;6.20;5.57;;;6.20;54.70;;;;;;6239762;28;20234;-78
2023/04/05 08:21:28;;;;;;;8.47;6.30;;;6.30;53.60;;;;;;6236835;28;20247;-77
2023/04/05 08:24:33;;;;;;;6.73;6.10;;;6.40;54.00;;;;;;6251155;28;20241;-78
2023/04/05 08:27:36;;;;;;;6.70;6.20;;;6.40;53.80;;;;;;6245161;28;20340;-78
2023/04/05 08:30:39;;;;;;;5.80;5.40;;;6.50;53.30;;;;;;6241275;28;20234;-77
2023/04/05 08:33:42;;;;;;;5.57;5.13;;;6.60;52.60;;;;;;6257360;28;20229;-78
2023/04/05 08:36:45;;;;;;;6.40;5.77;;;6.80;52.30;;;;;;6244677;28;20222;-78
2023/04/05 08:39:52;;;;;;;7.53;5.80;;;6.90;52.10;;;;;;6241088;28;20737;-76
2023/04/05 08:43:02;;;;;;;6.27;5.93;;;7.00;51.30;;;;;;6241450;28;20358;-77
2023/04/05 08:46:09;;;;;;;5.80;5.40;;;7.20;50.80;;;;;;6245364;28;20482;-77
2023/04/05 08:49:15;;;;;;;6.00;5.50;;;6.90;51.50;;;;;;6249877;28;20250;-78
2023/04/05 08:52:19;;;;;;;5.27;4.87;;;6.90;51.30;;;;;;6255987;28;20630;-77
2023/04/05 08:55:23;;;;;;;6.13;5.63;;;7.00;51.60;;;;;;6246949;28;20236;-77
2023/04/05 08:58:28;;;;;;;5.63;5.33;;;7.10;51.20;;;;;;6250429;28;20234;-78
2023/04/05 09:01:32;;;;;;;5.77;5.37;;;7.20;51.30;;;;;;6252605;28;20476;-77
2023/04/05 09:04:43;;;;;;;6.37;5.93;;;7.20;50.50;;;;;;6235294;28;20274;-77
2023/04/05 09:07:46;;;;;;;6.17;5.67;;;7.00;51.00;;;;;;6248237;28;20288;-76
2023/04/05 09:10:51;;;;;;;5.60;5.20;;;7.10;51.10;;;;;;6253142;28;20238;-76
2023/04/05 09:13:54;;;;;;;5.33;5.03;;;7.20;51.20;;;;;;6236713;28;20285;-77
2023/04/05 09:17:00;;;;;;;6.50;5.93;;;7.30;51.70;;;;;;6248319;28;20705;-77
2023/04/05 09:20:03;;;;;;;6.93;5.40;;;7.50;51.70;;;;;;6240803;28;20234;-77
2023/04/05 09:23:06;;;;;;;5.70;5.47;;;7.70;50.10;;;;;;6236546;28;20310;-76
2023/04/05 09:26:21;;;;;;;8.63;5.67;;;7.80;50.00;;;;;;6258915;28;20261;-75
2023/04/05 09:29:32;;;;;;;5.27;4.80;;;7.70;50.20;;;;;;6255483;28;20264;-77
2023/04/05 09:32:35;;;;;;;5.70;5.30;;;7.60;50.50;;;;;;6252939;28;20873;-77
2023/04/05 09:35:38;;;;;;;6.40;5.90;;;7.50;50.50;;;;;;6247543;28;20233;-76
2023/04/05 09:38:46;;;;;;;6.70;6.00;;;7.60;50.70;;;;;;6249928;28;20337;-76
2023/04/05 09:42:06;;;;;;;5.73;5.43;;;7.80;50.20;;;;;;6242049;28;20314;-75
2023/04/05 09:45:09;;;;;;;7.37;5.70;;;7.90;50.70;;;;;;6242482;28;20230;-76
2023/04/05 09:48:13;;;;;;;10.90;5.73;;;8.10;49.30;;;;;;6246486;28;20229;-77
2023/04/05 09:51:17;;;;;;;7.07;5.77;;;8.30;48.70;;;;;;6246030;28;20239;-75
2023/04/05 09:54:20;;;;;;;6.00;5.60;;;8.30;49.80;;;;;;6259361;28;20499;-75
2023/04/05 09:57:25;;;;;;;6.00;5.50;;;8.30;49.00;;;;;;6248914;28;20231;-76
2023/04/05 10:00:30;;;;;;;5.47;5.17;;;8.20;49.10;;;;;;6241052;28;20300;-77
2023/04/05 10:03:46;;;;;;;6.70;5.83;;;8.20;49.10;;;;;;6244558;28;20635;-76
2023/04/05 10:06:50;;;;;;;4.70;4.50;;;8.10;48.80;;;;;;6242537;28;20238;-77
2023/04/05 10:09:53;;;;;;;5.93;5.43;;;8.10;48.10;;;;;;6254711;28;20829;-79
2023/04/05 10:12:58;;;;;;;5.20;5.00;;;8.00;48.10;;;;;;6248429;28;20253;-75
2023/04/05 10:16:05;;;;;;;5.30;4.90;;;8.00;48.90;;;;;;6247524;28;20265;-79
2023/04/05 10:19:18;;;;;;;5.57;5.17;;;8.30;48.20;;;;;;6247240;28;20242;-75
2023/04/05 10:22:29;;;;;;;5.83;5.27;;;8.50;47.60;;;;;;6229587;28;20236;-75
2023/04/05 10:25:46;;;;;;;6.60;5.60;;;8.50;47.70;;;;;;6232950;28;20235;-77
2023/04/05 10:28:55;;;;;;;5.17;4.97;;;8.70;48.20;;;;;;6231789;28;20691;-79
2023/04/05 10:32:05;;;;;;;5.50;5.07;;;8.90;48.00;;;;;;6244500;28;20292;-74
2023/04/05 10:35:15;;;;;;;5.40;5.13;;;8.90;48.50;;;;;;6259641;28;20233;-77
2023/04/05 10:38:24;;;;;;;4.97;4.73;;;8.90;47.60;;;;;;6251569;28;21071;-77
2023/04/05 10:41:30;;;;;;;5.23;4.53;;;8.60;48.00;;;;;;6236734;28;20422;-79
2023/04/05 10:44:36;;;;;;;5.33;4.97;;;8.50;48.30;;;;;;6247376;28;20231;-79
2023/04/05 10:47:47;;;;;;;5.70;5.20;;;8.50;48.30;;;;;;6238503;28;20250;-77
2023/04/05 10:50:50;;;;;;;5.03;4.73;;;8.40;48.40;;;;;;6249733;28;20234;-79
2023/04/05 10:53:56;;;;;;;5.33;4.93;;;8.20;48.70;;;;;;6251868;28;20619;-76
2023/04/05 10:57:01;;;;;;;5.73;5.27;;;8.10;49.30;;;;;;6241566;28;20234;-78
2023/04/05 11:00:07;;;;;;;5.43;5.13;;;8.00;49.00;;;;;;6251760;28;20314;-79
2023/04/05 11:03:11;;;;;;;6.07;5.73;;;7.80;49.30;;;;;;6251946;28;20739;-79
2023/04/05 11:06:25;;;;;;;5.53;5.13;;;7.80;49.60;;;;;;6239553;28;20312;-77
2023/04/05 11:09:28;;;;;;;6.03;5.57;;;7.80;50.00;;;;;;6241584;28;20235;-76
2023/04/05 11:13:03;;;;;;;6.10;5.50;;;8.00;49.70;;;;;;6253065;28;20245;-75
2023/04/05 11:16:10;;;;;;;5.50;5.30;;;8.10;49.00;;;;;;6239289;28;20231;-76
2023/04/05 11:19:16;;;;;;;5.90;5.37;;;8.10;49.30;;;;;;6251806;28;20271;-76
2023/04/05 11:22:27;;;;;;;5.20;4.80;;;8.10;49.50;;;;;;6248300;28;20234;-78
2023/04/05 11:25:32;;;;;;;5.37;5.00;;;8.00;49.60;;;;;;6249651;28;20420;-75
2023/04/05 11:28:39;;;;;;;5.17;4.97;;;8.10;49.50;;;;;;6246828;28;20571;-78
2023/04/05 11:35:21;;;;;;;5.23;4.83;;;8.20;49.40;;;;;;6316396;27;21236;-79
2023/04/05 11:38:25;;;;;;;4.87;4.60;;;8.60;49.30;;;;;;6286955;28;20460;-81
2023/04/05 11:41:33;;;;;;;5.57;5.27;;;8.70;49.20;;;;;;6307914;27;21069;-79
2023/04/05 11:44:45;;;;;;;5.63;5.33;;;8.50;49.10;;;;;;6308268;27;20626;-80
2023/04/05 11:47:48;;;;;;;5.77;5.37;;;8.20;49.80;;;;;;6306712;27;20252;-80
2023/04/05 11:50:54;;;;;;;6.00;5.47;;;8.00;50.70;;;;;;6306412;27;20232;-79
2023/04/05 11:53:57;;;;;;;5.70;5.30;;;7.90;51.30;;;;;;6308318;28;20597;-79
2023/04/05 11:57:02;;;;;;;6.47;5.47;;;7.90;51.00;;;;;;6299389;27;20236;-78
2023/04/05 12:00:08;;;;;;;4.83;4.63;;;7.90;51.50;;;;;;6300141;27;21699;-81
2023/04/05 12:03:12;;;;;;;5.80;5.40;;;7.80;51.80;;;;;;6308093;27;20232;-80
2023/04/05 12:06:17;;;;;;;6.07;5.60;;;7.90;51.70;;;;;;6307806;27;20728;-76
2023/04/05 12:09:20;;;;;;;5.73;5.33;;;8.00;51.50;;;;;;6299563;28;20263;-79
2023/04/05 12:12:24;;;;;;;4.97;4.57;;;8.30;50.60;;;;;;6304869;28;20244;-78
2023/04/05 12:15:27;;;;;;;4.67;4.37;;;8.40;50.10;;;;;;6306042;27;20247;-79
2023/04/05 12:18:32;;;;;;;5.80;5.33;;;8.60;49.10;;;;;;6303850;28;20246;-76
2023/04/05 12:21:37;;;;;;;5.57;5.17;;;8.70;48.70;;;;;;6296152;27;20249;-78
2023/04/05 12:24:40;;;;;;;5.57;5.10;;;8.80;49.00;;;;;;6303118;27;20233;-79
2023/04/05 12:27:45;;;;;;;6.33;5.03;;;8.80;49.60;;;;;;6304489;28;20233;-79
2023/04/05 12:30:49;;;;;;;7.03;4.53;;;8.70;50.50;;;;;;6305843;28;20368;-77
2023/04/05 12:33:59;;;;;;;4.70;4.50;;;8.80;50.40;;;;;;6308819;28;20735;-78
2023/04/05 12:37:04;;;;;;;5.10;4.73;;;8.80;50.40;;;;;;6303130;27;20688;-79
2023/04/05 12:40:08;;;;;;;5.07;4.77;;;8.60;50.30;;;;;;6305742;28;20359;-79
2023/04/05 12:43:18;;;;;;;5.20;5.00;;;8.60;50.50;;;;;;6304026;27;20244;-80
2023/04/05 12:46:21;;;;;;;4.23;4.03;;;8.60;50.00;;;;;;6288155;28;20666;-79
2023/04/05 12:49:27;;;;;;;5.23;4.70;;;8.80;49.50;;;;;;6288870;28;20241;-80
2023/04/05 12:52:34;;;;;;;4.80;4.60;;;8.90;49.80;;;;;;6281525;28;20234;-77
2023/04/05 12:55:44;;;;;;;4.93;4.50;;;8.90;49.80;;;;;;6280920;28;20813;-78
2023/04/05 12:58:49;;;;;;;5.33;4.87;;;9.00;49.30;;;;;;6288240;28;20252;-77
2023/04/05 13:01:53;;;;;;;5.47;5.17;;;9.20;49.40;;;;;;6287142;28;20923;-80
2023/04/05 13:04:56;;;;;;;5.33;4.97;;;9.20;49.10;;;;;;6288245;28;20263;-78
2023/04/05 13:08:00;;;;;;;4.60;4.40;;;9.10;49.60;;;;;;6287102;28;20617;-78
2023/04/05 13:11:03;;;;;;;5.23;4.90;;;9.20;48.00;;;;;;6284097;28;20244;-80
2023/04/05 13:14:07;;;;;;;5.60;4.37;;;9.20;48.30;;;;;;6288425;28;20233;-79
2023/04/05 13:17:10;;;;;;;4.63;4.40;;;9.40;48.30;;;;;;6286736;28;20240;-79
2023/04/05 13:20:13;;;;;;;4.43;4.20;;;9.50;48.10;;;;;;6284977;28;20233;-81
2023/04/05 13:23:18;;;;;;;5.40;5.00;;;10.00;47.20;;;;;;6287526;28;20842;-79
2023/04/05 13:26:22;;;;;;;5.53;4.47;;;10.20;46.60;;;;;;6287185;28;20237;-81
2023/04/05 13:29:25;;;;;;;4.90;4.60;;;10.30;46.00;;;;;;6276857;28;20816;-79
2023/04/05 13:32:28;;;;;;;6.13;5.53;;;10.30;46.20;;;;;;6285982;28;20244;-79
2023/04/05 13:35:31;;;;;;;4.30;4.10;;;10.10;46.10;;;;;;6287775;28;20273;-79
2023/04/05 13:38:36;;;;;;;4.90;4.60;;;9.80;46.70;;;;;;6276290;28;20233;-78
2023/04/05 13:41:39;;;;;;;5.57;5.17;;;9.70;46.80;;;;;;6276956;28;20311;-79
2023/04/05 13:44:42;;;;;;;4.70;4.50;;;9.40;46.80;;;;;;6286586;28;20332;-77
2023/04/05 13:47:46;;;;;;;5.03;4.70;;;9.20;47.40;;;;;;6284160;28;20399;-79
2023/04/05 13:50:49;;;;;;;4.43;4.33;;;8.90;48.00;;;;;;6286660;28;20604;-80
2023/04/05 13:53:54;;;;;;;5.23;4.90;;;8.80;47.90;;;;;;6285403;28;20243;-79
2023/04/05 13:56:57;;;;;;;4.80;4.60;;;8.60;47.90;;;;;;6284178;28;20230;-79
2023/04/05 14:00:00;;;;;;;5.70;4.73;;;8.50;48.20;;;;;;6286123;28;20369;-77
2023/04/05 14:03:04;;;;;;;5.03;4.70;;;8.50;48.20;;;;;;6287291;28;20262;-80
2023/04/05 14:06:07;;;;;;;5.07;4.87;;;8.50;48.50;;;;;;6285321;28;20232;-79
2023/04/05 14:09:12;;;;;;;5.33;5.03;;;8.60;48.50;;;;;;6284320;28;20245;-79
2023/04/05 14:12:15;;;;;;;4.70;4.40;;;9.00;48.10;;;;;;6286497;28;20229;-79
2023/04/05 14:15:19;;;;;;;4.70;4.50;;;9.20;47.70;;;;;;6282770;28;20312;-80
2023/04/05 14:18:22;;;;;;;5.00;4.47;;;9.50;46.80;;;;;;6285302;28;20268;-80
2023/04/05 14:21:26;;;;;;;5.10;4.80;;;9.60;46.80;;;;;;6284429;28;20236;-78
2023/04/05 14:24:31;;;;;;;4.77;4.57;;;10.00;46.10;;;;;;6285295;28;20728;-79
2023/04/05 14:27:40;;;;;;;5.33;4.93;;;10.10;45.40;;;;;;6279859;28;20295;-81
2023/04/05 14:30:43;;;;;;;4.40;4.23;;;10.10;45.70;;;;;;6278454;28;20249;-78
2023/04/05 14:33:46;;;;;;;4.40;4.20;;;10.10;45.70;;;;;;6285678;28;20243;-79
2023/04/05 14:36:49;;;;;;;4.77;4.57;;;10.30;45.50;;;;;;6286758;28;20629;-78
2023/04/05 14:39:54;;;;;;;4.77;4.47;;;10.40;45.00;;;;;;6283913;28;20229;-78
2023/04/05 14:42:57;;;;;;;4.33;4.13;;;10.00;44.50;;;;;;6284623;28;20237;-78
2023/04/05 14:46:01;;;;;;;4.37;4.07;;;9.90;45.40;;;;;;6289381;28;20399;-80
2023/04/05 14:49:04;;;;;;;4.60;4.40;;;9.90;45.30;;;;;;6288352;28;20225;-78
2023/04/05 14:52:07;;;;;;;5.50;5.20;;;9.80;45.40;;;;;;6283842;28;20257;-80
2023/04/05 14:55:12;;;;;;;4.80;4.57;;;9.70;45.10;;;;;;6286422;28;20238;-79
2023/04/05 14:58:16;;;;;;;5.50;5.20;;;9.80;45.40;;;;;;6286295;28;20320;-77
2023/04/05 15:01:19;;;;;;;4.60;4.50;;;9.90;45.70;;;;;;6283851;28;20404;-77
2023/04/05 15:04:23;;;;;;;5.87;5.20;;;9.50;45.50;;;;;;6285018;28;20240;-78
2023/04/05 15:07:26;;;;;;;5.53;4.80;;;9.20;45.90;;;;;;6284391;28;20244;-78
2023/04/05 15:10:31;;;;;;;5.67;4.40;;;9.10;45.80;;;;;;6289348;28;20237;-78
2023/04/05 15:13:35;;;;;;;4.70;4.40;;;9.00;45.90;;;;;;6315945;28;20217;-77
2023/04/05 15:16:38;;;;;;;4.63;4.43;;;8.80;46.70;;;;;;6316928;28;20221;-78
2023/04/05 15:19:41;;;;;;;5.17;4.80;;;8.60;46.90;;;;;;6309752;28;20221;-77
2023/04/05 15:22:45;;;;;;;8.13;5.40;;;8.30;47.20;;;;;;6316227;28;20361;-77
2023/04/05 15:25:49;;;;;;;5.03;4.83;;;8.20;47.50;;;;;;6310348;28;20241;-75
2023/04/05 15:28:53;;;;;;;4.57;4.47;;;8.00;47.90;;;;;;6318099;28;20390;-76
2023/04/05 15:31:56;;;;;;;4.90;4.50;;;8.00;47.80;;;;;;6320139;28;20388;-78
2023/04/05 15:35:00;;;;;;;5.40;5.00;;;8.10;47.30;;;;;;6315946;28;20279;-78
2023/04/05 15:38:03;;;;;;;4.90;4.70;;;8.00;48.20;;;;;;6311677;28;20212;-77
2023/04/05 15:41:09;;;;;;;5.30;4.90;;;7.90;48.90;;;;;;6326610;28;20301;-75
2023/04/05 15:44:13;;;;;;;4.73;4.53;;;7.70;50.20;;;;;;6301720;28;20301;-77
2023/04/05 15:47:16;;;;;;;8.63;4.97;;;7.60;50.90;;;;;;6301420;28;20293;-78
2023/04/05 15:50:20;;;;;;;4.47;4.37;;;7.50;49.80;;;;;;6295593;28;20313;-77
2023/04/05 15:53:23;;;;;;;5.17;4.83;;;7.50;49.70;;;;;;6301953;28;20231;-77
2023/04/05 15:56:28;;;;;;;4.77;4.53;;;7.50;49.80;;;;;;6299017;28;20309;-78
2023/04/05 15:59:31;;;;;;;4.70;4.40;;;7.60;49.40;;;;;;6297901;28;20234;-76
2023/04/05 16:02:36;;;;;;;4.17;4.07;;;7.70;49.10;;;;;;6311605;28;20221;-79
2023/04/05 16:05:40;;;;;;;4.87;4.60;;;7.80;49.00;;;;;;6311343;28;20221;-79
2023/04/05 16:08:43;;;;;;;5.13;4.90;;;7.80;49.20;;;;;;6312335;28;20229;-78
2023/04/05 16:11:48;;;;;;;4.90;4.70;;;7.70;48.50;;;;;;6308968;28;20229;-77
2023/04/05 16:14:51;;;;;;;5.33;5.07;;;7.50;48.40;;;;;;6309921;28;20217;-77
2023/04/05 16:17:54;;;;;;;4.70;4.50;;;7.50;48.80;;;;;;6310139;28;20252;-77
2023/04/05 16:20:58;;;;;;;4.40;4.20;;;7.60;48.30;;;;;;6309424;28;20433;-79